KUVA/UVA METAR and TAF weather

Enter ICAO airport designator
Station Type Date Time Source
KUVA METAR 2022/01/17 08:55 UTC NOAA

KUVA 170855Z AUTO 00000KT 10SM CLR 00/M11 A3012 RMK AO2 T00041107


Station Type Date Time Source
KUVA Decoded METAR 2022/01/17 08:55 UTC NOAA

Uvalde, Garner Field Airport, TX, United States (KUVA) 29-12-40N 099-44-36W
Jan 17, 2022 - 03:55 AM EST / 2022.01.17 0855 UTC
Wind: Calm:0
Visibility: 10 mile(s):0
Sky conditions: clear
Temperature: 32.7 F (0.4 C)
Dew Point: 12.7 F (-10.7 C)
Relative Humidity: 43%
Pressure (altimeter): 30.12 in. Hg (1019 hPa)
ob: KUVA 170855Z AUTO 00000KT 10SM CLR 00/M11 A3012 RMK AO2 T00041107
cycle: 9

Station Type Date Time Source
KUVA TAF UTC NOAA

Error!

Example: see airport list